オークランド の空港の天気 - METARとTAF

オークランド国際空港 ( NZAA / AKL ) - ニュージーランド オークランド|オークランド
飛行場実況気象(Metar)
観測時間11/27 21:00 NZDT (11/27 08:00 UTC)
風向・風速北西 2m/s
視程10km以上
天気現象弱い雨
少しの雲 雲底高度 940m
全天の8割程度の雲 雲底高度 1830m
全天を覆う雲 雲底高度 2290m
気温15℃
湿度94%
気圧1001hPa
METARNZAA 270800Z AUTO 32004KT 280V350 9999 -RA FEW031/// BKN060/// OVC075/// 15/14 Q1001 TEMPO 6000 SHRA BKN012
過去の天気等 Google飛行場航空写真 Wunderground天気予報

過去48時間のMETAR

飛行場予報(TAF)
発表時間: 11/27 18:11 NZDT (11/27 05:11 UTC)
予報対象時間: 27日19時 NZDT ~ 29日1時 NZDT
風向・風速西南西 8m/s
視程10km以上
全天の8割程度の雲 雲底高度 610m
27日19時 NZDT ~ 27日23時 NZDT に一時的に
視程6000m
天気現象しゅう雨
全天の8割程度の雲 雲底高度 370m
28日21時 NZDT ~ 28日23時 NZDT に徐々に
風向・風速西南西 3m/s
TAF NZAA 270511Z 2706/2812 24015KT 9999 BKN020
TEMPO 2706/2710 6000 SHRA BKN012
BECMG 2808/2810 24005KT